Aviation Digital Data Service (ADDS)

Output produced by METARs form (0029 UTC 17 July 2019)
found at http://www.aviationweather.gov/metar/data/
 
METAR text: LMML 170015Z 32006KT CAVOK 21/17 Q1012 NOSIG
Conditions at: LMML (LUQA/MALTA , MT) observed 0015 UTC 17 July 2019
Temperature: 21.0°C (70°F)
Dewpoint: 17.0°C (63°F) [RH = 78%]
Pressure (altimeter): 29.88 inches Hg (1012.0 mb)
Winds: from the NW (320 degrees) at 7 MPH (6 knots; 3.1 m/s)
Visibility: 6 or more miles (10+ km)
Ceiling: ceiling and visibility are OK
Clouds: unknown
Weather: no significant weather observed at this time

METAR text: LMML 162345Z 30004KT CAVOK 22/18 Q1012 NOSIG
Conditions at: LMML (LUQA/MALTA , MT) observed 2345 UTC 16 July 2019
Temperature: 22.0°C (72°F)
Dewpoint: 18.0°C (64°F) [RH = 78%]
Pressure (altimeter): 29.88 inches Hg (1012.0 mb)
Winds: from the WNW (300 degrees) at 5 MPH (4 knots; 2.1 m/s)
Visibility: 6 or more miles (10+ km)
Ceiling: ceiling and visibility are OK
Clouds: unknown
Weather: no significant weather observed at this time

METAR text: LMML 162315Z 24004KT CAVOK 21/18 Q1012 NOSIG
Conditions at: LMML (LUQA/MALTA , MT) observed 2315 UTC 16 July 2019
Temperature: 21.0°C (70°F)
Dewpoint: 18.0°C (64°F) [RH = 83%]
Pressure (altimeter): 29.88 inches Hg (1012.0 mb)
Winds: from the WSW (240 degrees) at 5 MPH (4 knots; 2.1 m/s)
Visibility: 6 or more miles (10+ km)
Ceiling: ceiling and visibility are OK
Clouds: unknown
Weather: no significant weather observed at this time

METAR text: LMML 162245Z 29004KT CAVOK 22/19 Q1012 NOSIG
Conditions at: LMML (LUQA/MALTA , MT) observed 2245 UTC 16 July 2019
Temperature: 22.0°C (72°F)
Dewpoint: 19.0°C (66°F) [RH = 83%]
Pressure (altimeter): 29.88 inches Hg (1012.0 mb)
Winds: from the WNW (290 degrees) at 5 MPH (4 knots; 2.1 m/s)
Visibility: 6 or more miles (10+ km)
Ceiling: ceiling and visibility are OK
Clouds: unknown
Weather: no significant weather observed at this time

METAR text: LMML 162215Z 33002KT CAVOK 22/19 Q1011 NOSIG
Conditions at: LMML (LUQA/MALTA , MT) observed 2215 UTC 16 July 2019
Temperature: 22.0°C (72°F)
Dewpoint: 19.0°C (66°F) [RH = 83%]
Pressure (altimeter): 29.85 inches Hg (1011.0 mb)
Winds: from the NNW (330 degrees) at 2 MPH (2 knots; 1.0 m/s)
Visibility: 6 or more miles (10+ km)
Ceiling: ceiling and visibility are OK
Clouds: unknown
Weather: no significant weather observed at this time

METAR text: LMML 162145Z 00000KT CAVOK 22/19 Q1011 NOSIG
Conditions at: LMML (LUQA/MALTA , MT) observed 2145 UTC 16 July 2019
Temperature: 22.0°C (72°F)
Dewpoint: 19.0°C (66°F) [RH = 83%]
Pressure (altimeter): 29.85 inches Hg (1011.0 mb)
Winds: calm
Visibility: 6 or more miles (10+ km)
Ceiling: ceiling and visibility are OK
Clouds: unknown
Weather: no significant weather observed at this time

METAR text: LMML 162115Z 09003KT CAVOK 22/19 Q1011 NOSIG
Conditions at: LMML (LUQA/MALTA , MT) observed 2115 UTC 16 July 2019
Temperature: 22.0°C (72°F)
Dewpoint: 19.0°C (66°F) [RH = 83%]
Pressure (altimeter): 29.85 inches Hg (1011.0 mb)
Winds: from the E (90 degrees) at 3 MPH (3 knots; 1.5 m/s)
Visibility: 6 or more miles (10+ km)
Ceiling: ceiling and visibility are OK
Clouds: unknown
Weather: no significant weather observed at this time

METAR text: LMML 162045Z 13002KT CAVOK 23/20 Q1011 NOSIG
Conditions at: LMML (LUQA/MALTA , MT) observed 2045 UTC 16 July 2019
Temperature: 23.0°C (73°F)
Dewpoint: 20.0°C (68°F) [RH = 83%]
Pressure (altimeter): 29.85 inches Hg (1011.0 mb)
Winds: from the SE (130 degrees) at 2 MPH (2 knots; 1.0 m/s)
Visibility: 6 or more miles (10+ km)
Ceiling: ceiling and visibility are OK
Clouds: unknown
Weather: no significant weather observed at this time

METAR text: LMML 162015Z 11004KT 9999 FEW021 23/20 Q1010 NOSIG
Conditions at: LMML (LUQA/MALTA , MT) observed 2015 UTC 16 July 2019
Temperature: 23.0°C (73°F)
Dewpoint: 20.0°C (68°F) [RH = 83%]
Pressure (altimeter): 29.82 inches Hg (1010.0 mb)
Winds: from the ESE (110 degrees) at 5 MPH (4 knots; 2.1 m/s)
Visibility: 6 or more miles (10+ km)
Ceiling: at least 12,000 feet AGL
Clouds: few clouds at 2100 feet AGL
Weather: no significant weather observed at this time

METAR text: LMML 161945Z 09003KT 9999 FEW021 23/19 Q1010 NOSIG
Conditions at: LMML (LUQA/MALTA , MT) observed 1945 UTC 16 July 2019
Temperature: 23.0°C (73°F)
Dewpoint: 19.0°C (66°F) [RH = 78%]
Pressure (altimeter): 29.82 inches Hg (1010.0 mb)
Winds: from the E (90 degrees) at 3 MPH (3 knots; 1.5 m/s)
Visibility: 6 or more miles (10+ km)
Ceiling: at least 12,000 feet AGL
Clouds: few clouds at 2100 feet AGL
Weather: no significant weather observed at this time

METAR text: LMML 161915Z 07005KT 9999 FEW021 24/19 Q1010 NOSIG
Conditions at: LMML (LUQA/MALTA , MT) observed 1915 UTC 16 July 2019
Temperature: 24.0°C (75°F)
Dewpoint: 19.0°C (66°F) [RH = 74%]
Pressure (altimeter): 29.82 inches Hg (1010.0 mb)
Winds: from the ENE (70 degrees) at 6 MPH (5 knots; 2.6 m/s)
Visibility: 6 or more miles (10+ km)
Ceiling: at least 12,000 feet AGL
Clouds: few clouds at 2100 feet AGL
Weather: no significant weather observed at this time

METAR text: LMML 161845Z 05008KT 9999 FEW022 24/19 Q1009 NOSIG
Conditions at: LMML (LUQA/MALTA , MT) observed 1845 UTC 16 July 2019
Temperature: 24.0°C (75°F)
Dewpoint: 19.0°C (66°F) [RH = 74%]
Pressure (altimeter): 29.79 inches Hg (1009.0 mb)
Winds: from the NE (50 degrees) at 9 MPH (8 knots; 4.1 m/s)
Visibility: 6 or more miles (10+ km)
Ceiling: at least 12,000 feet AGL
Clouds: few clouds at 2200 feet AGL
Weather: no significant weather observed at this time

METAR text: LMML 161815Z 35015KT 9999 FEW025 25/19 Q1009 NOSIG
Conditions at: LMML (LUQA/MALTA , MT) observed 1815 UTC 16 July 2019
Temperature: 25.0°C (77°F)
Dewpoint: 19.0°C (66°F) [RH = 69%]
Pressure (altimeter): 29.79 inches Hg (1009.0 mb)
Winds: from the N (350 degrees) at 17 MPH (15 knots; 7.7 m/s)
Visibility: 6 or more miles (10+ km)
Ceiling: at least 12,000 feet AGL
Clouds: few clouds at 2500 feet AGL
Weather: no significant weather observed at this time

METAR text: LMML 161745Z 35018KT 9999 FEW025 26/19 Q1009 NOSIG
Conditions at: LMML (LUQA/MALTA , MT) observed 1745 UTC 16 July 2019
Temperature: 26.0°C (79°F)
Dewpoint: 19.0°C (66°F) [RH = 65%]
Pressure (altimeter): 29.79 inches Hg (1009.0 mb)
Winds: from the N (350 degrees) at 21 MPH (18 knots; 9.3 m/s)
Visibility: 6 or more miles (10+ km)
Ceiling: at least 12,000 feet AGL
Clouds: few clouds at 2500 feet AGL
Weather: no significant weather observed at this time

METAR text: LMML 161715Z 34020KT 9999 FEW025 26/18 Q1008 NOSIG
Conditions at: LMML (LUQA/MALTA , MT) observed 1715 UTC 16 July 2019
Temperature: 26.0°C (79°F)
Dewpoint: 18.0°C (64°F) [RH = 61%]
Pressure (altimeter): 29.76 inches Hg (1008.0 mb)
Winds: from the NNW (340 degrees) at 23 MPH (20 knots; 10.3 m/s)
Visibility: 6 or more miles (10+ km)
Ceiling: at least 12,000 feet AGL
Clouds: few clouds at 2500 feet AGL
Weather: no significant weather observed at this time

METAR text: LMML 161645Z 32019KT 9999 FEW025 26/18 Q1008 NOSIG
Conditions at: LMML (LUQA/MALTA , MT) observed 1645 UTC 16 July 2019
Temperature: 26.0°C (79°F)
Dewpoint: 18.0°C (64°F) [RH = 61%]
Pressure (altimeter): 29.76 inches Hg (1008.0 mb)
Winds: from the NW (320 degrees) at 22 MPH (19 knots; 9.8 m/s)
Visibility: 6 or more miles (10+ km)
Ceiling: at least 12,000 feet AGL
Clouds: few clouds at 2500 feet AGL
Weather: no significant weather observed at this time

METAR text: LMML 161615Z 33022KT 9999 FEW025 26/18 Q1008 NOSIG
Conditions at: LMML (LUQA/MALTA , MT) observed 1615 UTC 16 July 2019
Temperature: 26.0°C (79°F)
Dewpoint: 18.0°C (64°F) [RH = 61%]
Pressure (altimeter): 29.76 inches Hg (1008.0 mb)
Winds: from the NNW (330 degrees) at 25 MPH (22 knots; 11.3 m/s)
Visibility: 6 or more miles (10+ km)
Ceiling: at least 12,000 feet AGL
Clouds: few clouds at 2500 feet AGL
Weather: no significant weather observed at this time

METAR text: LMML 161545Z 31020KT 9999 SCT025 26/18 Q1007 NOSIG
Conditions at: LMML (LUQA/MALTA , MT) observed 1545 UTC 16 July 2019
Temperature: 26.0°C (79°F)
Dewpoint: 18.0°C (64°F) [RH = 61%]
Pressure (altimeter): 29.73 inches Hg (1007.0 mb)
Winds: from the NW (310 degrees) at 23 MPH (20 knots; 10.3 m/s)
Visibility: 6 or more miles (10+ km)
Ceiling: at least 12,000 feet AGL
Clouds: scattered clouds at 2500 feet AGL
Weather: no significant weather observed at this time

METAR text: LMML 161515Z 31025KT 9999 SCT025 26/18 Q1007 NOSIG
Conditions at: LMML (LUQA/MALTA , MT) observed 1515 UTC 16 July 2019
Temperature: 26.0°C (79°F)
Dewpoint: 18.0°C (64°F) [RH = 61%]
Pressure (altimeter): 29.73 inches Hg (1007.0 mb)
Winds: from the NW (310 degrees) at 29 MPH (25 knots; 12.9 m/s)
Visibility: 6 or more miles (10+ km)
Ceiling: at least 12,000 feet AGL
Clouds: scattered clouds at 2500 feet AGL
Weather: no significant weather observed at this time

METAR text: LMML 161445Z 33024KT 9999 FEW025TCU SCT027 26/18 Q1007 NOSIG
Conditions at: LMML (LUQA/MALTA , MT) observed 1445 UTC 16 July 2019
Temperature: 26.0°C (79°F)
Dewpoint: 18.0°C (64°F) [RH = 61%]
Pressure (altimeter): 29.73 inches Hg (1007.0 mb)
Winds: from the NNW (330 degrees) at 28 MPH (24 knots; 12.3 m/s)
Visibility: 6 or more miles (10+ km)
Ceiling: at least 12,000 feet AGL
Clouds: few clouds at 2500 feet AGL
scattered clouds at 2700 feet AGL
Weather: no significant weather observed at this time

METAR text: LMML 161415Z 30025KT 9999 FEW025TCU SCT027 26/17 Q1007 NOSIG
Conditions at: LMML (LUQA/MALTA , MT) observed 1415 UTC 16 July 2019
Temperature: 26.0°C (79°F)
Dewpoint: 17.0°C (63°F) [RH = 58%]
Pressure (altimeter): 29.73 inches Hg (1007.0 mb)
Winds: from the WNW (300 degrees) at 29 MPH (25 knots; 12.9 m/s)
Visibility: 6 or more miles (10+ km)
Ceiling: at least 12,000 feet AGL
Clouds: few clouds at 2500 feet AGL
scattered clouds at 2700 feet AGL
Weather: no significant weather observed at this time

METAR text: LMML 161345Z 30026KT 9999 FEW025TCU 27/17 Q1007 NOSIG
Conditions at: LMML (LUQA/MALTA , MT) observed 1345 UTC 16 July 2019
Temperature: 27.0°C (81°F)
Dewpoint: 17.0°C (63°F) [RH = 54%]
Pressure (altimeter): 29.73 inches Hg (1007.0 mb)
Winds: from the WNW (300 degrees) at 30 MPH (26 knots; 13.4 m/s)
Visibility: 6 or more miles (10+ km)
Ceiling: at least 12,000 feet AGL
Clouds: few clouds at 2500 feet AGL
Weather: no significant weather observed at this time

METAR text: LMML 161315Z 31024KT 9999 FEW020TCU 27/18 Q1007 TEMPO 8000 SHRA BKN020TCU
Conditions at: LMML (LUQA/MALTA , MT) observed 1315 UTC 16 July 2019
Temperature: 27.0°C (81°F)
Dewpoint: 18.0°C (64°F) [RH = 58%]
Pressure (altimeter): 29.73 inches Hg (1007.0 mb)
Winds: from the NW (310 degrees) at 28 MPH (24 knots; 12.3 m/s)
Visibility: 6 or more miles (10+ km)
Ceiling: at least 12,000 feet AGL
Clouds: few clouds at 2000 feet AGL
Weather: no significant weather observed at this time

METAR text: LMML 161245Z 30025KT 9999 FEW020TCU 26/18 Q1007 NOSIG
Conditions at: LMML (LUQA/MALTA , MT) observed 1245 UTC 16 July 2019
Temperature: 26.0°C (79°F)
Dewpoint: 18.0°C (64°F) [RH = 61%]
Pressure (altimeter): 29.73 inches Hg (1007.0 mb)
Winds: from the WNW (300 degrees) at 29 MPH (25 knots; 12.9 m/s)
Visibility: 6 or more miles (10+ km)
Ceiling: at least 12,000 feet AGL
Clouds: few clouds at 2000 feet AGL
Weather: no significant weather observed at this time

METAR text: LMML 161215Z 31022KT 9999 FEW020TCU 25/19 Q1008 NOSIG
Conditions at: LMML (LUQA/MALTA , MT) observed 1215 UTC 16 July 2019
Temperature: 25.0°C (77°F)
Dewpoint: 19.0°C (66°F) [RH = 69%]
Pressure (altimeter): 29.76 inches Hg (1008.0 mb)
Winds: from the NW (310 degrees) at 25 MPH (22 knots; 11.3 m/s)
Visibility: 6 or more miles (10+ km)
Ceiling: at least 12,000 feet AGL
Clouds: few clouds at 2000 feet AGL
Weather: no significant weather observed at this time

METAR text: LMML 161145Z 30028KT 9999 -SHRA SCT020TCU SCT024 25/20 Q1008 RESHRA TEMPO 8000 SHRA BKN020TCU
Conditions at: LMML (LUQA/MALTA , MT) observed 1145 UTC 16 July 2019
Temperature: 25.0°C (77°F)
Dewpoint: 20.0°C (68°F) [RH = 74%]
Pressure (altimeter): 29.76 inches Hg (1008.0 mb)
Winds: from the WNW (300 degrees) at 32 MPH (28 knots; 14.4 m/s)
Visibility: 6 or more miles (10+ km)
Ceiling: at least 12,000 feet AGL
Clouds: scattered clouds at 2000 feet AGL
scattered clouds at 2400 feet AGL
Weather: -SHRA  (light rain showers)

METAR text: LMML 161115Z 32014KT 9999 SCT027TCU 25/19 Q1008 RESHRA NOSIG
Conditions at: LMML (LUQA/MALTA , MT) observed 1115 UTC 16 July 2019
Temperature: 25.0°C (77°F)
Dewpoint: 19.0°C (66°F) [RH = 69%]
Pressure (altimeter): 29.76 inches Hg (1008.0 mb)
Winds: from the NW (320 degrees) at 16 MPH (14 knots; 7.2 m/s)
Visibility: 6 or more miles (10+ km)
Ceiling: at least 12,000 feet AGL
Clouds: scattered clouds at 2700 feet AGL
Weather: no significant weather observed at this time

METAR text: LMML 161102Z 31024KT 7000 R13/0600VP2000D SHRA SCT027TCU SCT034 27/17 Q1008 BECMG 8000
Conditions at: LMML (LUQA/MALTA , MT) observed 1102 UTC 16 July 2019
Temperature: 27.0°C (81°F)
Dewpoint: 17.0°C (63°F) [RH = 54%]
Pressure (altimeter): 29.76 inches Hg (1008.0 mb)
Winds: from the NW (310 degrees) at 28 MPH (24 knots; 12.3 m/s)
Visibility: 4 miles ( 7 km)
Ceiling: at least 12,000 feet AGL
Clouds: scattered clouds at 2700 feet AGL
scattered clouds at 3400 feet AGL
Weather: SHRA  (rain showers)

METAR text: LMML 161045Z 31022KT 9999 FEW028 FEW032TCU 27/16 Q1008 TEMPO 8000 SHRA BKN020TCU
Conditions at: LMML (LUQA/MALTA , MT) observed 1045 UTC 16 July 2019
Temperature: 27.0°C (81°F)
Dewpoint: 16.0°C (61°F) [RH = 51%]
Pressure (altimeter): 29.76 inches Hg (1008.0 mb)
Winds: from the NW (310 degrees) at 25 MPH (22 knots; 11.3 m/s)
Visibility: 6 or more miles (10+ km)
Ceiling: at least 12,000 feet AGL
Clouds: few clouds at 2800 feet AGL
few clouds at 3200 feet AGL
Weather: no significant weather observed at this time

METAR text: LMML 161015Z 30023KT 9999 FEW028 FEW032TCU 27/17 Q1008 TEMPO 8000 SHRA BKN020TCU
Conditions at: LMML (LUQA/MALTA , MT) observed 1015 UTC 16 July 2019
Temperature: 27.0°C (81°F)
Dewpoint: 17.0°C (63°F) [RH = 54%]
Pressure (altimeter): 29.76 inches Hg (1008.0 mb)
Winds: from the WNW (300 degrees) at 26 MPH (23 knots; 11.8 m/s)
Visibility: 6 or more miles (10+ km)
Ceiling: at least 12,000 feet AGL
Clouds: few clouds at 2800 feet AGL
few clouds at 3200 feet AGL
Weather: no significant weather observed at this time

METAR text: LMML 160945Z 31018KT 9999 FEW028TCU SCT030 28/17 Q1008 TEMPO 8000 SHRA BKN020TCU
Conditions at: LMML (LUQA/MALTA , MT) observed 0945 UTC 16 July 2019
Temperature: 28.0°C (82°F)
Dewpoint: 17.0°C (63°F) [RH = 51%]
Pressure (altimeter): 29.76 inches Hg (1008.0 mb)
Winds: from the NW (310 degrees) at 21 MPH (18 knots; 9.3 m/s)
Visibility: 6 or more miles (10+ km)
Ceiling: at least 12,000 feet AGL
Clouds: few clouds at 2800 feet AGL
scattered clouds at 3000 feet AGL
Weather: no significant weather observed at this time

METAR text: LMML 160915Z 32022KT 9999 SCT030 27/17 Q1008 NOSIG
Conditions at: LMML (LUQA/MALTA , MT) observed 0915 UTC 16 July 2019
Temperature: 27.0°C (81°F)
Dewpoint: 17.0°C (63°F) [RH = 54%]
Pressure (altimeter): 29.76 inches Hg (1008.0 mb)
Winds: from the NW (320 degrees) at 25 MPH (22 knots; 11.3 m/s)
Visibility: 6 or more miles (10+ km)
Ceiling: at least 12,000 feet AGL
Clouds: scattered clouds at 3000 feet AGL
Weather: no significant weather observed at this time

METAR text: LMML 160845Z 32017KT 9999 FEW030 27/18 Q1008 NOSIG
Conditions at: LMML (LUQA/MALTA , MT) observed 0845 UTC 16 July 2019
Temperature: 27.0°C (81°F)
Dewpoint: 18.0°C (64°F) [RH = 58%]
Pressure (altimeter): 29.76 inches Hg (1008.0 mb)
Winds: from the NW (320 degrees) at 20 MPH (17 knots; 8.7 m/s)
Visibility: 6 or more miles (10+ km)
Ceiling: at least 12,000 feet AGL
Clouds: few clouds at 3000 feet AGL
Weather: no significant weather observed at this time

METAR text: LMML 160815Z 31018KT 9999 FEW028 27/17 Q1008 NOSIG
Conditions at: LMML (LUQA/MALTA , MT) observed 0815 UTC 16 July 2019
Temperature: 27.0°C (81°F)
Dewpoint: 17.0°C (63°F) [RH = 54%]
Pressure (altimeter): 29.76 inches Hg (1008.0 mb)
Winds: from the NW (310 degrees) at 21 MPH (18 knots; 9.3 m/s)
Visibility: 6 or more miles (10+ km)
Ceiling: at least 12,000 feet AGL
Clouds: few clouds at 2800 feet AGL
Weather: no significant weather observed at this time

METAR text: LMML 160745Z 33023KT 9999 FEW028 27/17 Q1008 NOSIG
Conditions at: LMML (LUQA/MALTA , MT) observed 0745 UTC 16 July 2019
Temperature: 27.0°C (81°F)
Dewpoint: 17.0°C (63°F) [RH = 54%]
Pressure (altimeter): 29.76 inches Hg (1008.0 mb)
Winds: from the NNW (330 degrees) at 26 MPH (23 knots; 11.8 m/s)
Visibility: 6 or more miles (10+ km)
Ceiling: at least 12,000 feet AGL
Clouds: few clouds at 2800 feet AGL
Weather: no significant weather observed at this time

METAR text: LMML 160715Z 33022KT 9999 FEW023 27/18 Q1007 NOSIG
Conditions at: LMML (LUQA/MALTA , MT) observed 0715 UTC 16 July 2019
Temperature: 27.0°C (81°F)
Dewpoint: 18.0°C (64°F) [RH = 58%]
Pressure (altimeter): 29.73 inches Hg (1007.0 mb)
Winds: from the NNW (330 degrees) at 25 MPH (22 knots; 11.3 m/s)
Visibility: 6 or more miles (10+ km)
Ceiling: at least 12,000 feet AGL
Clouds: few clouds at 2300 feet AGL
Weather: no significant weather observed at this time

METAR text: LMML 160645Z 33022KT 9999 FEW023 27/17 Q1007 NOSIG
Conditions at: LMML (LUQA/MALTA , MT) observed 0645 UTC 16 July 2019
Temperature: 27.0°C (81°F)
Dewpoint: 17.0°C (63°F) [RH = 54%]
Pressure (altimeter): 29.73 inches Hg (1007.0 mb)
Winds: from the NNW (330 degrees) at 25 MPH (22 knots; 11.3 m/s)
Visibility: 6 or more miles (10+ km)
Ceiling: at least 12,000 feet AGL
Clouds: few clouds at 2300 feet AGL
Weather: no significant weather observed at this time

METAR text: LMML 160615Z 34015KT 9999 FEW023 26/17 Q1007 NOSIG
Conditions at: LMML (LUQA/MALTA , MT) observed 0615 UTC 16 July 2019
Temperature: 26.0°C (79°F)
Dewpoint: 17.0°C (63°F) [RH = 58%]
Pressure (altimeter): 29.73 inches Hg (1007.0 mb)
Winds: from the NNW (340 degrees) at 17 MPH (15 knots; 7.7 m/s)
Visibility: 6 or more miles (10+ km)
Ceiling: at least 12,000 feet AGL
Clouds: few clouds at 2300 feet AGL
Weather: no significant weather observed at this time

METAR text: LMML 160545Z 33017KT 9999 FEW025 26/18 Q1007 NOSIG
Conditions at: LMML (LUQA/MALTA , MT) observed 0545 UTC 16 July 2019
Temperature: 26.0°C (79°F)
Dewpoint: 18.0°C (64°F) [RH = 61%]
Pressure (altimeter): 29.73 inches Hg (1007.0 mb)
Winds: from the NNW (330 degrees) at 20 MPH (17 knots; 8.7 m/s)
Visibility: 6 or more miles (10+ km)
Ceiling: at least 12,000 feet AGL
Clouds: few clouds at 2500 feet AGL
Weather: no significant weather observed at this time

METAR text: LMML 160515Z 34014KT CAVOK 25/18 Q1007 NOSIG
Conditions at: LMML (LUQA/MALTA , MT) observed 0515 UTC 16 July 2019
Temperature: 25.0°C (77°F)
Dewpoint: 18.0°C (64°F) [RH = 65%]
Pressure (altimeter): 29.73 inches Hg (1007.0 mb)
Winds: from the NNW (340 degrees) at 16 MPH (14 knots; 7.2 m/s)
Visibility: 6 or more miles (10+ km)
Ceiling: ceiling and visibility are OK
Clouds: unknown
Weather: no significant weather observed at this time

METAR text: LMML 160445Z 33012KT CAVOK 24/18 Q1007 NOSIG
Conditions at: LMML (LUQA/MALTA , MT) observed 0445 UTC 16 July 2019
Temperature: 24.0°C (75°F)
Dewpoint: 18.0°C (64°F) [RH = 69%]
Pressure (altimeter): 29.73 inches Hg (1007.0 mb)
Winds: from the NNW (330 degrees) at 14 MPH (12 knots; 6.2 m/s)
Visibility: 6 or more miles (10+ km)
Ceiling: ceiling and visibility are OK
Clouds: unknown
Weather: no significant weather observed at this time

METAR text: LMML 160415Z 34011KT CAVOK 24/19 Q1007 NOSIG
Conditions at: LMML (LUQA/MALTA , MT) observed 0415 UTC 16 July 2019
Temperature: 24.0°C (75°F)
Dewpoint: 19.0°C (66°F) [RH = 74%]
Pressure (altimeter): 29.73 inches Hg (1007.0 mb)
Winds: from the NNW (340 degrees) at 13 MPH (11 knots; 5.7 m/s)
Visibility: 6 or more miles (10+ km)
Ceiling: ceiling and visibility are OK
Clouds: unknown
Weather: no significant weather observed at this time

METAR text: LMML 160345Z 34012KT 9999 FEW015 24/19 Q1007 NOSIG
Conditions at: LMML (LUQA/MALTA , MT) observed 0345 UTC 16 July 2019
Temperature: 24.0°C (75°F)
Dewpoint: 19.0°C (66°F) [RH = 74%]
Pressure (altimeter): 29.73 inches Hg (1007.0 mb)
Winds: from the NNW (340 degrees) at 14 MPH (12 knots; 6.2 m/s)
Visibility: 6 or more miles (10+ km)
Ceiling: at least 12,000 feet AGL
Clouds: few clouds at 1500 feet AGL
Weather: no significant weather observed at this time

METAR text: LMML 160315Z 34009KT CAVOK 24/20 Q1007 NOSIG
Conditions at: LMML (LUQA/MALTA , MT) observed 0315 UTC 16 July 2019
Temperature: 24.0°C (75°F)
Dewpoint: 20.0°C (68°F) [RH = 78%]
Pressure (altimeter): 29.73 inches Hg (1007.0 mb)
Winds: from the NNW (340 degrees) at 10 MPH (9 knots; 4.6 m/s)
Visibility: 6 or more miles (10+ km)
Ceiling: ceiling and visibility are OK
Clouds: unknown
Weather: no significant weather observed at this time

METAR text: LMML 160245Z 33014KT CAVOK 24/20 Q1007 NOSIG RMK LIGHTNING TO SE
Conditions at: LMML (LUQA/MALTA , MT) observed 0245 UTC 16 July 2019
Temperature: 24.0°C (75°F)
Dewpoint: 20.0°C (68°F) [RH = 78%]
Pressure (altimeter): 29.73 inches Hg (1007.0 mb)
Winds: from the NNW (330 degrees) at 16 MPH (14 knots; 7.2 m/s)
Visibility: 6 or more miles (10+ km)
Ceiling: ceiling and visibility are OK
Clouds: unknown
Weather: no significant weather observed at this time

METAR text: LMML 160215Z 33014KT CAVOK 24/21 Q1007 NOSIG RMK LIGHTNING TO SE
Conditions at: LMML (LUQA/MALTA , MT) observed 0215 UTC 16 July 2019
Temperature: 24.0°C (75°F)
Dewpoint: 21.0°C (70°F) [RH = 83%]
Pressure (altimeter): 29.73 inches Hg (1007.0 mb)
Winds: from the NNW (330 degrees) at 16 MPH (14 knots; 7.2 m/s)
Visibility: 6 or more miles (10+ km)
Ceiling: ceiling and visibility are OK
Clouds: unknown
Weather: no significant weather observed at this time

METAR text: LMML 160145Z 33012KT CAVOK 24/20 Q1007 NOSIG RMK LIGHTNING TO SE
Conditions at: LMML (LUQA/MALTA , MT) observed 0145 UTC 16 July 2019
Temperature: 24.0°C (75°F)
Dewpoint: 20.0°C (68°F) [RH = 78%]
Pressure (altimeter): 29.73 inches Hg (1007.0 mb)
Winds: from the NNW (330 degrees) at 14 MPH (12 knots; 6.2 m/s)
Visibility: 6 or more miles (10+ km)
Ceiling: ceiling and visibility are OK
Clouds: unknown
Weather: no significant weather observed at this time

METAR text: LMML 160115Z 33013KT CAVOK 25/20 Q1007 NOSIG
Conditions at: LMML (LUQA/MALTA , MT) observed 0115 UTC 16 July 2019
Temperature: 25.0°C (77°F)
Dewpoint: 20.0°C (68°F) [RH = 74%]
Pressure (altimeter): 29.73 inches Hg (1007.0 mb)
Winds: from the NNW (330 degrees) at 15 MPH (13 knots; 6.7 m/s)
Visibility: 6 or more miles (10+ km)
Ceiling: ceiling and visibility are OK
Clouds: unknown
Weather: no significant weather observed at this time

METAR text: LMML 160045Z 33011KT CAVOK 25/20 Q1007 NOSIG RMK LIGHTNING TO E
Conditions at: LMML (LUQA/MALTA , MT) observed 0045 UTC 16 July 2019
Temperature: 25.0°C (77°F)
Dewpoint: 20.0°C (68°F) [RH = 74%]
Pressure (altimeter): 29.73 inches Hg (1007.0 mb)
Winds: from the NNW (330 degrees) at 13 MPH (11 knots; 5.7 m/s)
Visibility: 6 or more miles (10+ km)
Ceiling: ceiling and visibility are OK
Clouds: unknown
Weather: no significant weather observed at this time

METAR text: LMML 160015Z 33013KT CAVOK 25/20 Q1007 NOSIG RMK LIGHTNING TO NE
Conditions at: LMML (LUQA/MALTA , MT) observed 0015 UTC 16 July 2019
Temperature: 25.0°C (77°F)
Dewpoint: 20.0°C (68°F) [RH = 74%]
Pressure (altimeter): 29.73 inches Hg (1007.0 mb)
Winds: from the NNW (330 degrees) at 15 MPH (13 knots; 6.7 m/s)
Visibility: 6 or more miles (10+ km)
Ceiling: ceiling and visibility are OK
Clouds: unknown
Weather: no significant weather observed at this time

METAR text: LMML 152345Z 33017KT CAVOK 25/20 Q1007 NOSIG RMK LIGHTNING TO NE
Conditions at: LMML (LUQA/MALTA , MT) observed 2345 UTC 15 July 2019
Temperature: 25.0°C (77°F)
Dewpoint: 20.0°C (68°F) [RH = 74%]
Pressure (altimeter): 29.73 inches Hg (1007.0 mb)
Winds: from the NNW (330 degrees) at 20 MPH (17 knots; 8.7 m/s)
Visibility: 6 or more miles (10+ km)
Ceiling: ceiling and visibility are OK
Clouds: unknown
Weather: no significant weather observed at this time

METAR text: LMML 152315Z 33017KT CAVOK 25/20 Q1007 NOSIG
Conditions at: LMML (LUQA/MALTA , MT) observed 2315 UTC 15 July 2019
Temperature: 25.0°C (77°F)
Dewpoint: 20.0°C (68°F) [RH = 74%]
Pressure (altimeter): 29.73 inches Hg (1007.0 mb)
Winds: from the NNW (330 degrees) at 20 MPH (17 knots; 8.7 m/s)
Visibility: 6 or more miles (10+ km)
Ceiling: ceiling and visibility are OK
Clouds: unknown
Weather: no significant weather observed at this time

METAR text: LMML 152245Z 32013KT CAVOK 25/21 Q1007 NOSIG
Conditions at: LMML (LUQA/MALTA , MT) observed 2245 UTC 15 July 2019
Temperature: 25.0°C (77°F)
Dewpoint: 21.0°C (70°F) [RH = 79%]
Pressure (altimeter): 29.73 inches Hg (1007.0 mb)
Winds: from the NW (320 degrees) at 15 MPH (13 knots; 6.7 m/s)
Visibility: 6 or more miles (10+ km)
Ceiling: ceiling and visibility are OK
Clouds: unknown
Weather: no significant weather observed at this time

METAR text: LMML 152215Z 32011KT CAVOK 25/21 Q1008 NOSIG
Conditions at: LMML (LUQA/MALTA , MT) observed 2215 UTC 15 July 2019
Temperature: 25.0°C (77°F)
Dewpoint: 21.0°C (70°F) [RH = 79%]
Pressure (altimeter): 29.76 inches Hg (1008.0 mb)
Winds: from the NW (320 degrees) at 13 MPH (11 knots; 5.7 m/s)
Visibility: 6 or more miles (10+ km)
Ceiling: ceiling and visibility are OK
Clouds: unknown
Weather: no significant weather observed at this time

METAR text: LMML 152145Z 33014KT CAVOK 25/21 Q1008 NOSIG
Conditions at: LMML (LUQA/MALTA , MT) observed 2145 UTC 15 July 2019
Temperature: 25.0°C (77°F)
Dewpoint: 21.0°C (70°F) [RH = 79%]
Pressure (altimeter): 29.76 inches Hg (1008.0 mb)
Winds: from the NNW (330 degrees) at 16 MPH (14 knots; 7.2 m/s)
Visibility: 6 or more miles (10+ km)
Ceiling: ceiling and visibility are OK
Clouds: unknown
Weather: no significant weather observed at this time

METAR text: LMML 152115Z 33016KT CAVOK 25/21 Q1008 NOSIG
Conditions at: LMML (LUQA/MALTA , MT) observed 2115 UTC 15 July 2019
Temperature: 25.0°C (77°F)
Dewpoint: 21.0°C (70°F) [RH = 79%]
Pressure (altimeter): 29.76 inches Hg (1008.0 mb)
Winds: from the NNW (330 degrees) at 18 MPH (16 knots; 8.2 m/s)
Visibility: 6 or more miles (10+ km)
Ceiling: ceiling and visibility are OK
Clouds: unknown
Weather: no significant weather observed at this time

METAR text: LMML 152045Z 33014KT 9999 FEW019 25/20 Q1008 NOSIG
Conditions at: LMML (LUQA/MALTA , MT) observed 2045 UTC 15 July 2019
Temperature: 25.0°C (77°F)
Dewpoint: 20.0°C (68°F) [RH = 74%]
Pressure (altimeter): 29.76 inches Hg (1008.0 mb)
Winds: from the NNW (330 degrees) at 16 MPH (14 knots; 7.2 m/s)
Visibility: 6 or more miles (10+ km)
Ceiling: at least 12,000 feet AGL
Clouds: few clouds at 1900 feet AGL
Weather: no significant weather observed at this time

METAR text: LMML 152015Z 33011KT 9999 FEW019 25/20 Q1008 NOSIG RMK LIGHTNING TO E
Conditions at: LMML (LUQA/MALTA , MT) observed 2015 UTC 15 July 2019
Temperature: 25.0°C (77°F)
Dewpoint: 20.0°C (68°F) [RH = 74%]
Pressure (altimeter): 29.76 inches Hg (1008.0 mb)
Winds: from the NNW (330 degrees) at 13 MPH (11 knots; 5.7 m/s)
Visibility: 6 or more miles (10+ km)
Ceiling: at least 12,000 feet AGL
Clouds: few clouds at 1900 feet AGL
Weather: no significant weather observed at this time

METAR text: LMML 151945Z 33012KT 9999 FEW019 25/21 Q1008 NOSIG RMK LIGHTNING TO NE
Conditions at: LMML (LUQA/MALTA , MT) observed 1945 UTC 15 July 2019
Temperature: 25.0°C (77°F)
Dewpoint: 21.0°C (70°F) [RH = 79%]
Pressure (altimeter): 29.76 inches Hg (1008.0 mb)
Winds: from the NNW (330 degrees) at 14 MPH (12 knots; 6.2 m/s)
Visibility: 6 or more miles (10+ km)
Ceiling: at least 12,000 feet AGL
Clouds: few clouds at 1900 feet AGL
Weather: no significant weather observed at this time

METAR text: LMML 151915Z 33017KT 9999 FEW019 25/21 Q1007 NOSIG
Conditions at: LMML (LUQA/MALTA , MT) observed 1915 UTC 15 July 2019
Temperature: 25.0°C (77°F)
Dewpoint: 21.0°C (70°F) [RH = 79%]
Pressure (altimeter): 29.73 inches Hg (1007.0 mb)
Winds: from the NNW (330 degrees) at 20 MPH (17 knots; 8.7 m/s)
Visibility: 6 or more miles (10+ km)
Ceiling: at least 12,000 feet AGL
Clouds: few clouds at 1900 feet AGL
Weather: no significant weather observed at this time

METAR text: LMML 151845Z 33014KT 9999 FEW019 25/21 Q1007 NOSIG
Conditions at: LMML (LUQA/MALTA , MT) observed 1845 UTC 15 July 2019
Temperature: 25.0°C (77°F)
Dewpoint: 21.0°C (70°F) [RH = 79%]
Pressure (altimeter): 29.73 inches Hg (1007.0 mb)
Winds: from the NNW (330 degrees) at 16 MPH (14 knots; 7.2 m/s)
Visibility: 6 or more miles (10+ km)
Ceiling: at least 12,000 feet AGL
Clouds: few clouds at 1900 feet AGL
Weather: no significant weather observed at this time

METAR text: LMML 151815Z 33016KT 9999 SCT020 26/20 Q1007 NOSIG
Conditions at: LMML (LUQA/MALTA , MT) observed 1815 UTC 15 July 2019
Temperature: 26.0°C (79°F)
Dewpoint: 20.0°C (68°F) [RH = 70%]
Pressure (altimeter): 29.73 inches Hg (1007.0 mb)
Winds: from the NNW (330 degrees) at 18 MPH (16 knots; 8.2 m/s)
Visibility: 6 or more miles (10+ km)
Ceiling: at least 12,000 feet AGL
Clouds: scattered clouds at 2000 feet AGL
Weather: no significant weather observed at this time

METAR text: LMML 151745Z 33013KT 9999 FEW020 26/20 Q1006 NOSIG
Conditions at: LMML (LUQA/MALTA , MT) observed 1745 UTC 15 July 2019
Temperature: 26.0°C (79°F)
Dewpoint: 20.0°C (68°F) [RH = 70%]
Pressure (altimeter): 29.70 inches Hg (1006.0 mb)
Winds: from the NNW (330 degrees) at 15 MPH (13 knots; 6.7 m/s)
Visibility: 6 or more miles (10+ km)
Ceiling: at least 12,000 feet AGL
Clouds: few clouds at 2000 feet AGL
Weather: no significant weather observed at this time

METAR text: LMML 151715Z 32019KT 9999 FEW020TCU 27/21 Q1006 NOSIG
Conditions at: LMML (LUQA/MALTA , MT) observed 1715 UTC 15 July 2019
Temperature: 27.0°C (81°F)
Dewpoint: 21.0°C (70°F) [RH = 70%]
Pressure (altimeter): 29.70 inches Hg (1006.0 mb)
Winds: from the NW (320 degrees) at 22 MPH (19 knots; 9.8 m/s)
Visibility: 6 or more miles (10+ km)
Ceiling: at least 12,000 feet AGL
Clouds: few clouds at 2000 feet AGL
Weather: no significant weather observed at this time

METAR text: LMML 151645Z AUTO 32016KT CAVOK 28/21 Q1006 NOSIG
Conditions at: LMML (LUQA/MALTA , MT) observed 1645 UTC 15 July 2019
Temperature: 28.0°C (82°F)
Dewpoint: 21.0°C (70°F) [RH = 66%]
Pressure (altimeter): 29.70 inches Hg (1006.0 mb)
Winds: from the NW (320 degrees) at 18 MPH (16 knots; 8.2 m/s)
Visibility: 6 or more miles (10+ km)
Ceiling: ceiling and visibility are OK
Clouds: unknown
Weather: no significant weather observed at this time

METAR text: LMML 151615Z 31016KT 9999 FEW021 29/22 Q1006 NOSIG
Conditions at: LMML (LUQA/MALTA , MT) observed 1615 UTC 15 July 2019
Temperature: 29.0°C (84°F)
Dewpoint: 22.0°C (72°F) [RH = 66%]
Pressure (altimeter): 29.70 inches Hg (1006.0 mb)
Winds: from the NW (310 degrees) at 18 MPH (16 knots; 8.2 m/s)
Visibility: 6 or more miles (10+ km)
Ceiling: at least 12,000 feet AGL
Clouds: few clouds at 2100 feet AGL
Weather: no significant weather observed at this time

METAR text: LMML 151545Z 31016KT 9999 FEW022 30/22 Q1006 NOSIG
Conditions at: LMML (LUQA/MALTA , MT) observed 1545 UTC 15 July 2019
Temperature: 30.0°C (86°F)
Dewpoint: 22.0°C (72°F) [RH = 62%]
Pressure (altimeter): 29.70 inches Hg (1006.0 mb)
Winds: from the NW (310 degrees) at 18 MPH (16 knots; 8.2 m/s)
Visibility: 6 or more miles (10+ km)
Ceiling: at least 12,000 feet AGL
Clouds: few clouds at 2200 feet AGL
Weather: no significant weather observed at this time

METAR text: LMML 151515Z 36011KT 9999 FEW019 SCT029 29/23 Q1006 NOSIG
Conditions at: LMML (LUQA/MALTA , MT) observed 1515 UTC 15 July 2019
Temperature: 29.0°C (84°F)
Dewpoint: 23.0°C (73°F) [RH = 70%]
Pressure (altimeter): 29.70 inches Hg (1006.0 mb)
Winds: from the N (360 degrees) at 13 MPH (11 knots; 5.7 m/s)
Visibility: 6 or more miles (10+ km)
Ceiling: at least 12,000 feet AGL
Clouds: few clouds at 1900 feet AGL
scattered clouds at 2900 feet AGL
Weather: no significant weather observed at this time

METAR text: LMML 151445Z 36008KT 9999 FEW020 SCT031 29/23 Q1006 NOSIG
Conditions at: LMML (LUQA/MALTA , MT) observed 1445 UTC 15 July 2019
Temperature: 29.0°C (84°F)
Dewpoint: 23.0°C (73°F) [RH = 70%]
Pressure (altimeter): 29.70 inches Hg (1006.0 mb)
Winds: from the N (360 degrees) at 9 MPH (8 knots; 4.1 m/s)
Visibility: 6 or more miles (10+ km)
Ceiling: at least 12,000 feet AGL
Clouds: few clouds at 2000 feet AGL
scattered clouds at 3100 feet AGL
Weather: no significant weather observed at this time

METAR text: LMML 151415Z 05008KT 9999 SCT016 BKN028 29/23 Q1006 NOSIG
Conditions at: LMML (LUQA/MALTA , MT) observed 1415 UTC 15 July 2019
Temperature: 29.0°C (84°F)
Dewpoint: 23.0°C (73°F) [RH = 70%]
Pressure (altimeter): 29.70 inches Hg (1006.0 mb)
Winds: from the NE (50 degrees) at 9 MPH (8 knots; 4.1 m/s)
Visibility: 6 or more miles (10+ km)
Ceiling: 2800 feet AGL
Clouds: scattered clouds at 1600 feet AGL
broken clouds at 2800 feet AGL
Weather: no significant weather observed at this time

METAR text: LMML 151345Z 07007KT 9999 FEW017 SCT030 29/24 Q1006 NOSIG
Conditions at: LMML (LUQA/MALTA , MT) observed 1345 UTC 15 July 2019
Temperature: 29.0°C (84°F)
Dewpoint: 24.0°C (75°F) [RH = 74%]
Pressure (altimeter): 29.70 inches Hg (1006.0 mb)
Winds: from the ENE (70 degrees) at 8 MPH (7 knots; 3.6 m/s)
Visibility: 6 or more miles (10+ km)
Ceiling: at least 12,000 feet AGL
Clouds: few clouds at 1700 feet AGL
scattered clouds at 3000 feet AGL
Weather: no significant weather observed at this time

METAR text: LMML 151315Z AUTO 07008KT 9999NDV SCT013/// SCT025/// BKN047/// 28/24 Q1006 NOSIG
Conditions at: LMML (LUQA/MALTA , MT) observed 1315 UTC 15 July 2019
Temperature: 28.0°C (82°F)
Dewpoint: 24.0°C (75°F) [RH = 79%]
Pressure (altimeter): 29.70 inches Hg (1006.0 mb)
Winds: from the ENE (70 degrees) at 9 MPH (8 knots; 4.1 m/s)
Visibility: missing
Ceiling: 4700 feet AGL
Clouds: scattered clouds at 1300 feet AGL
scattered clouds at 2500 feet AGL
broken clouds at 4700 feet AGL
Weather: no significant weather observed at this time

METAR text: LMML 151245Z 16006KT 9999 SCT013 SCT020 28/24 Q1006 NOSIG
Conditions at: LMML (LUQA/MALTA , MT) observed 1245 UTC 15 July 2019
Temperature: 28.0°C (82°F)
Dewpoint: 24.0°C (75°F) [RH = 79%]
Pressure (altimeter): 29.70 inches Hg (1006.0 mb)
Winds: from the SSE (160 degrees) at 7 MPH (6 knots; 3.1 m/s)
Visibility: 6 or more miles (10+ km)
Ceiling: at least 12,000 feet AGL
Clouds: scattered clouds at 1300 feet AGL
scattered clouds at 2000 feet AGL
Weather: no significant weather observed at this time

Forecast for: LMML (LUQA/MALTA , MT)
Text: TAF LMML 162300Z 1700/1724 34005KT 9999 FEW020
Forecast period: 0000 UTC 17 July 2019 to 0000 UTC 18 July 2019
Forecast type: FROM: standard forecast or significant change
Winds: from the NNW (340 degrees) at 6 MPH (5 knots; 2.6 m/s)
Visibility: 6 or more miles 10+ km)
Ceiling: at least 12,000 feet AGL
Clouds: few clouds at 2000 feet AGL
Weather: no significant weather forecast for this period
Text: BECMG 1700/1703 35015KT
Forecast period: 0000 to 1200 UTC 17 July 2019
Forecast type: BECOMING: Conditions expected to become as follows by 0300 UTC 17 July 2019
Winds: from the N (350 degrees) at 17 MPH (15 knots; 7.7 m/s)
Visibility: 6 or more miles 10+ km)
Ceiling: at least 12,000 feet AGL
Clouds: few clouds at 2000 feet AGL
Weather: no significant weather forecast for this period
Text: BECMG 1712/1715 VRB05KT
Forecast period: 1200 UTC 17 July 2019 to 0000 UTC 18 July 2019
Forecast type: BECOMING: Conditions expected to become as follows by 1500 UTC 17 July 2019
Winds: variable direction winds at 6 MPH (5 knots; 2.6 m/s)
Visibility: 6 or more miles 10+ km)
Ceiling: at least 12,000 feet AGL
Clouds: few clouds at 2000 feet AGL
Weather: no significant weather forecast for this period